Time;durP1;ratioP1;P1;durP2;ratioP2;P2;SDS_P1;SDS_P2;PMS_P1;PMS_P2;Temp;Humidity;BMP_temperature;BMP_pressure;BME280_temperature;BME280_humidity;BME280_pressure;Samples;Min_cycle;Max_cycle;Signal;HPM_P1;HPM_P2
2021/11/15 00:01:57;;;;;;;3.78;3.47;;;17.70;63.70;;;;;;5051769;28;20646;-60
2021/11/15 00:04:25;;;;;;;4.55;4.00;;;17.70;63.70;;;;;;5051402;28;20218;-61
2021/11/15 00:06:50;;;;;;;4.30;3.85;;;17.70;63.70;;;;;;5051702;28;20167;-60
2021/11/15 00:09:16;;;;;;;3.08;2.88;;;17.70;63.70;;;;;;5051978;28;20175;-60
2021/11/15 00:11:42;;;;;;;3.85;3.55;;;17.60;63.60;;;;;;5050842;28;20251;-61
2021/11/15 00:14:07;;;;;;;3.83;3.55;;;17.60;63.60;;;;;;5051744;28;20179;-61
2021/11/15 00:16:32;;;;;;;3.60;3.30;;;17.60;63.60;;;;;;5051232;28;20186;-61
2021/11/15 00:18:58;;;;;;;3.97;3.67;;;17.60;63.70;;;;;;5051147;28;20214;-62
2021/11/15 00:21:24;;;;;;;4.10;3.80;;;17.60;63.70;;;;;;5051828;28;20195;-62
2021/11/15 00:23:49;;;;;;;3.63;3.33;;;17.60;63.60;;;;;;5051340;28;20179;-61
2021/11/15 00:26:15;;;;;;;3.97;3.67;;;17.60;63.70;;;;;;5051001;28;20233;-61
2021/11/15 00:28:40;;;;;;;3.50;3.20;;;17.60;63.70;;;;;;5051223;28;20312;-62
2021/11/15 00:31:07;;;;;;;3.97;3.65;;;17.60;64.40;;;;;;5051477;28;20258;-62
2021/11/15 00:33:32;;;;;;;3.33;3.10;;;17.60;63.60;;;;;;5050812;28;20206;-62
2021/11/15 00:35:58;;;;;;;3.90;3.60;;;17.60;63.60;;;;;;5052023;28;20203;-61
2021/11/15 00:38:23;;;;;;;3.60;3.30;;;17.60;63.60;;;;;;5050022;28;20250;-61
2021/11/15 00:40:49;;;;;;;3.55;3.35;;;17.60;63.60;;;;;;5050610;28;20171;-60
2021/11/15 00:43:14;;;;;;;3.65;3.38;;;17.60;63.60;;;;;;5051362;28;20179;-62
2021/11/15 00:45:40;;;;;;;3.58;3.28;;;17.60;63.60;;;;;;5051239;28;20533;-61
2021/11/15 00:48:06;;;;;;;3.55;3.25;;;17.50;63.60;;;;;;5049241;28;20226;-61
2021/11/15 00:50:31;;;;;;;3.63;3.33;;;17.50;63.60;;;;;;5051240;28;20587;-62
2021/11/15 00:52:57;;;;;;;3.88;3.58;;;17.50;63.50;;;;;;5051342;28;20171;-61
2021/11/15 00:55:22;;;;;;;3.58;3.30;;;17.50;63.70;;;;;;5050863;28;20694;-62
2021/11/15 00:57:48;;;;;;;3.58;3.28;;;17.50;63.60;;;;;;5051191;28;20770;-62
2021/11/15 01:00:16;;;;;;;4.00;3.38;;;17.50;63.60;;;;;;5051164;28;20210;-62
2021/11/15 01:02:42;;;;;;;3.53;3.22;;;17.50;63.50;;;;;;5050614;28;20171;-61
2021/11/15 01:05:07;;;;;;;3.90;3.60;;;17.50;63.60;;;;;;5051150;28;20175;-60
2021/11/15 01:07:33;;;;;;;4.18;3.58;;;17.50;63.50;;;;;;5050252;28;20260;-60
2021/11/15 01:09:58;;;;;;;3.83;3.53;;;17.50;63.60;;;;;;5051190;28;20630;-61
2021/11/15 01:12:24;;;;;;;3.97;3.58;;;17.50;63.50;;;;;;5051196;28;20168;-61
2021/11/15 01:14:50;;;;;;;3.90;3.60;;;17.50;63.50;;;;;;5050240;28;20167;-62
2021/11/15 01:17:16;;;;;;;4.28;3.88;;;17.50;63.60;;;;;;5051265;28;20181;-61
2021/11/15 01:19:41;;;;;;;4.13;3.72;;;17.40;63.50;;;;;;5050756;28;20214;-62
2021/11/15 01:22:07;;;;;;;3.70;3.40;;;17.50;63.50;;;;;;5050340;28;20262;-62
2021/11/15 01:24:32;;;;;;;3.70;3.40;;;17.50;63.50;;;;;;5050695;28;20206;-62
2021/11/15 01:26:58;;;;;;;3.88;3.58;;;17.40;63.40;;;;;;5051070;28;20261;-61
2021/11/15 01:29:23;;;;;;;4.00;3.70;;;17.50;63.50;;;;;;5050175;28;20185;-61
2021/11/15 01:31:49;;;;;;;3.50;3.20;;;17.40;63.40;;;;;;5050813;28;20266;-61
2021/11/15 01:34:14;;;;;;;3.47;3.00;;;17.40;63.40;;;;;;5051106;28;20235;-61
2021/11/15 01:36:40;;;;;;;3.65;3.35;;;17.40;63.40;;;;;;5049982;28;20168;-61
2021/11/15 01:39:05;;;;;;;3.60;3.30;;;17.40;63.50;;;;;;5050741;28;20238;-62
2021/11/15 01:41:31;;;;;;;3.15;2.95;;;17.40;63.40;;;;;;5053273;28;20237;-61
2021/11/15 01:43:57;;;;;;;3.97;3.67;;;17.40;63.40;;;;;;5053847;28;20179;-61
2021/11/15 01:46:22;;;;;;;4.05;3.65;;;17.40;63.40;;;;;;5054177;28;20510;-60
2021/11/15 01:48:48;;;;;;;3.55;3.25;;;17.40;63.40;;;;;;5054175;28;20179;-61
2021/11/15 01:51:13;;;;;;;3.80;3.50;;;17.40;63.50;;;;;;5053916;28;20171;-60
2021/11/15 01:53:39;;;;;;;3.60;3.30;;;17.40;63.50;;;;;;5054106;28;20175;-61
2021/11/15 01:56:04;;;;;;;3.25;3.03;;;17.40;63.40;;;;;;5054022;28;20646;-60
2021/11/15 01:58:30;;;;;;;2.97;2.75;;;17.40;63.40;;;;;;5053089;28;20222;-61
2021/11/15 02:00:57;;;;;;;3.97;3.58;;;17.40;63.40;;;;;;5054375;28;20191;-60
2021/11/15 02:03:23;;;;;;;3.70;3.40;;;17.40;63.40;;;;;;5054302;28;20203;-61
2021/11/15 02:05:49;;;;;;;3.40;3.10;;;17.30;63.40;;;;;;5053237;28;20179;-59
2021/11/15 02:08:15;;;;;;;3.22;2.92;;;17.40;63.40;;;;;;5054123;28;20305;-60
2021/11/15 02:10:41;;;;;;;3.63;3.33;;;17.40;63.40;;;;;;5053102;28;20262;-60
2021/11/15 02:13:06;;;;;;;4.30;3.90;;;17.40;63.30;;;;;;5053915;28;20193;-62
2021/11/15 02:15:32;;;;;;;3.95;3.60;;;17.30;63.30;;;;;;5053828;28;20186;-61
2021/11/15 02:17:57;;;;;;;3.90;3.60;;;17.30;63.30;;;;;;5053210;28;20202;-61
2021/11/15 02:20:27;;;;;;;3.80;3.50;;;17.30;63.30;;;;;;5053697;28;20187;-60
2021/11/15 02:22:53;;;;;;;3.58;3.28;;;17.30;63.30;;;;;;5053580;28;20180;-60
2021/11/15 02:25:21;;;;;;;3.00;2.80;;;17.30;63.30;;;;;;5052960;28;20179;-61
2021/11/15 02:27:47;;;;;;;3.80;3.50;;;17.30;63.30;;;;;;5053387;28;20194;-61
2021/11/15 02:30:21;;;;;;;4.07;3.72;;;17.30;63.40;;;;;;5053812;28;20171;-61
2021/11/15 02:32:47;;;;;;;3.67;3.38;;;17.30;63.30;;;;;;5052752;28;20175;-61
2021/11/15 02:35:13;;;;;;;3.97;3.63;;;17.30;63.30;;;;;;5053760;28;20266;-61
2021/11/15 02:37:38;;;;;;;3.60;3.30;;;17.30;63.30;;;;;;5053134;28;20179;-61
2021/11/15 02:40:05;;;;;;;3.42;3.13;;;17.30;63.30;;;;;;5052748;28;20190;-61
2021/11/15 02:42:31;;;;;;;4.07;3.67;;;17.30;63.30;;;;;;5052199;28;20191;-62
2021/11/15 02:44:56;;;;;;;3.92;3.53;;;17.30;63.30;;;;;;5053734;28;20175;-61
2021/11/15 02:47:22;;;;;;;3.75;3.30;;;17.30;63.30;;;;;;5052395;28;20547;-62
2021/11/15 02:49:47;;;;;;;3.67;3.38;;;17.30;63.30;;;;;;5052992;28;20171;-62
2021/11/15 02:52:17;;;;;;;3.35;3.05;;;17.20;63.30;;;;;;5052124;28;20171;-62
2021/11/15 02:54:42;;;;;;;3.85;3.05;;;17.20;63.30;;;;;;5052038;28;20520;-62
2021/11/15 02:57:12;;;;;;;3.40;3.10;;;17.20;63.20;;;;;;5053267;28;20262;-62
2021/11/15 02:59:37;;;;;;;3.60;3.30;;;17.20;63.20;;;;;;5052912;28;20225;-62
2021/11/15 03:02:03;;;;;;;3.92;3.60;;;17.20;63.20;;;;;;5052320;28;20534;-62
2021/11/15 03:04:28;;;;;;;4.32;3.92;;;17.20;63.20;;;;;;5052692;28;20250;-62
2021/11/15 03:06:54;;;;;;;3.60;3.30;;;17.20;63.30;;;;;;5052273;28;20649;-61
2021/11/15 03:09:19;;;;;;;4.05;3.72;;;17.20;63.30;;;;;;5052762;28;20266;-61
2021/11/15 03:11:45;;;;;;;3.50;3.13;;;17.20;63.30;;;;;;5052762;28;20174;-61
2021/11/15 03:14:10;;;;;;;4.05;3.63;;;17.20;63.30;;;;;;5052324;28;20182;-62
2021/11/15 03:16:36;;;;;;;3.50;3.20;;;17.20;63.20;;;;;;5052489;28;20171;-62
2021/11/15 03:19:01;;;;;;;3.97;3.67;;;17.20;63.30;;;;;;5052793;28;20207;-62
2021/11/15 03:21:27;;;;;;;3.60;3.40;;;17.20;63.20;;;;;;5051974;28;20194;-62
2021/11/15 03:23:54;;;;;;;3.90;3.60;;;17.20;63.20;;;;;;5052273;28;20649;-62
2021/11/15 03:26:20;;;;;;;3.78;3.45;;;17.20;63.30;;;;;;5052548;28;20193;-61
2021/11/15 03:28:47;;;;;;;3.80;3.50;;;17.20;63.20;;;;;;5051531;28;20656;-61
2021/11/15 03:31:24;;;;;;;3.45;3.05;;;17.20;63.20;;;;;;5052620;28;20175;-61
2021/11/15 03:33:51;;;;;;;4.22;3.83;;;17.20;63.30;;;;;;5052268;28;20179;-60
2021/11/15 03:36:16;;;;;;;3.33;3.13;;;17.10;63.20;;;;;;5051642;28;20179;-60
2021/11/15 03:38:42;;;;;;;4.05;3.65;;;17.10;63.30;;;;;;5051929;28;20209;-61
2021/11/15 03:41:08;;;;;;;3.72;3.42;;;17.10;63.20;;;;;;5052483;28;20176;-61
2021/11/15 03:43:33;;;;;;;3.30;3.10;;;17.10;63.20;;;;;;5051461;28;20172;-62
2021/11/15 03:45:59;;;;;;;4.05;3.72;;;17.10;63.20;;;;;;5052322;28;20181;-60
2021/11/15 03:48:25;;;;;;;3.72;3.42;;;17.10;63.20;;;;;;5052075;28;20227;-61
2021/11/15 03:50:54;;;;;;;3.67;3.38;;;17.10;63.20;;;;;;5051213;28;20171;-61
2021/11/15 03:53:20;;;;;;;3.97;3.67;;;17.10;63.20;;;;;;5051985;28;20179;-61
2021/11/15 03:55:46;;;;;;;3.90;3.60;;;17.10;63.20;;;;;;5051840;28;20183;-61
2021/11/15 03:58:11;;;;;;;4.07;3.78;;;17.10;63.20;;;;;;5051410;28;20229;-61
2021/11/15 04:00:39;;;;;;;3.95;3.65;;;17.10;63.20;;;;;;5051901;28;20280;-61
2021/11/15 04:03:08;;;;;;;4.05;3.65;;;17.10;63.20;;;;;;5051586;28;20232;-60
2021/11/15 04:05:37;;;;;;;3.70;3.40;;;17.10;63.20;;;;;;5051433;28;20174;-61
2021/11/15 04:08:04;;;;;;;4.15;3.85;;;17.10;63.20;;;;;;5052018;28;20275;-60
2021/11/15 04:10:35;;;;;;;3.38;3.08;;;17.10;63.20;;;;;;5051087;28;20175;-61
2021/11/15 04:13:05;;;;;;;4.18;3.78;;;17.10;63.20;;;;;;5052076;28;20183;-62
2021/11/15 04:15:31;;;;;;;4.15;3.83;;;17.10;63.10;;;;;;5051720;28;20552;-62
2021/11/15 04:17:58;;;;;;;4.18;3.88;;;17.10;63.20;;;;;;5051012;28;20670;-61
2021/11/15 04:20:24;;;;;;;4.03;3.72;;;17.10;63.20;;;;;;5051619;28;20240;-61
2021/11/15 04:22:49;;;;;;;3.90;3.60;;;17.00;63.00;;;;;;5051559;28;20175;-61
2021/11/15 04:25:15;;;;;;;4.18;3.88;;;17.00;63.00;;;;;;5051052;28;20175;-61
2021/11/15 04:27:40;;;;;;;4.03;3.72;;;17.00;63.10;;;;;;5051245;28;20630;-61
2021/11/15 04:30:07;;;;;;;3.95;3.65;;;17.10;63.20;;;;;;5051632;28;20171;-61
2021/11/15 04:32:32;;;;;;;3.90;3.60;;;17.00;63.10;;;;;;5050706;28;20179;-61
2021/11/15 04:34:58;;;;;;;4.28;3.88;;;17.00;63.20;;;;;;5051537;28;20229;-61
2021/11/15 04:37:23;;;;;;;4.07;3.70;;;17.00;63.10;;;;;;5051501;28;20622;-62
2021/11/15 04:39:49;;;;;;;4.15;3.80;;;17.00;63.20;;;;;;5050454;28;20748;-61
2021/11/15 04:42:15;;;;;;;3.83;3.42;;;17.00;63.10;;;;;;5051650;28;20204;-61
2021/11/15 04:44:40;;;;;;;3.67;3.38;;;17.00;63.10;;;;;;5051042;28;20583;-61
2021/11/15 04:47:06;;;;;;;4.03;3.60;;;17.00;63.10;;;;;;5050519;28;20249;-61
2021/11/15 04:49:31;;;;;;;3.85;3.55;;;17.00;63.10;;;;;;5051041;28;20278;-62
2021/11/15 04:51:57;;;;;;;3.85;3.55;;;17.00;63.10;;;;;;5051206;28;20175;-61
2021/11/15 04:54:22;;;;;;;4.50;4.00;;;17.00;63.10;;;;;;5050649;28;20237;-62
2021/11/15 04:56:48;;;;;;;3.90;3.60;;;17.00;63.20;;;;;;5051243;28;20190;-61
2021/11/15 04:59:16;;;;;;;3.78;3.47;;;17.00;63.10;;;;;;5051202;28;20758;-61
2021/11/15 05:01:42;;;;;;;4.53;4.13;;;17.00;63.10;;;;;;5050285;28;20254;-62
2021/11/15 05:04:08;;;;;;;4.32;3.92;;;17.00;63.10;;;;;;5051064;28;20267;-61
2021/11/15 05:06:33;;;;;;;3.80;3.50;;;16.90;63.10;;;;;;5050487;28;20175;-61
2021/11/15 05:08:59;;;;;;;5.65;3.70;;;17.00;63.10;;;;;;5051412;28;20205;-61
2021/11/15 05:11:24;;;;;;;3.92;3.58;;;16.90;63.00;;;;;;5051134;28;20645;-62
2021/11/15 05:13:50;;;;;;;4.15;3.72;;;16.90;63.00;;;;;;5050320;28;20194;-62
2021/11/15 05:16:16;;;;;;;3.70;3.40;;;16.90;63.00;;;;;;5053461;28;20206;-62
2021/11/15 05:18:41;;;;;;;4.38;3.97;;;16.90;63.00;;;;;;5054424;28;20305;-61
2021/11/15 05:21:07;;;;;;;3.90;3.60;;;17.00;63.10;;;;;;5054425;28;20163;-61
2021/11/15 05:23:32;;;;;;;3.85;3.55;;;16.90;63.00;;;;;;5054510;28;20186;-62
2021/11/15 05:25:58;;;;;;;4.30;3.90;;;16.90;63.00;;;;;;5054980;28;20492;-61
2021/11/15 05:28:24;;;;;;;4.35;4.05;;;16.90;63.10;;;;;;5054215;28;20469;-62
2021/11/15 05:30:49;;;;;;;4.00;3.70;;;16.90;63.10;;;;;;5054405;28;20181;-61
2021/11/15 05:33:15;;;;;;;3.85;3.55;;;16.90;63.10;;;;;;5054590;28;20171;-60
2021/11/15 05:35:40;;;;;;;3.72;3.42;;;16.90;63.20;;;;;;5053769;28;20182;-60
2021/11/15 05:38:06;;;;;;;3.60;3.30;;;16.90;63.10;;;;;;5054574;28;20202;-61
2021/11/15 05:40:31;;;;;;;4.10;3.80;;;16.90;63.10;;;;;;5054295;28;20179;-61
2021/11/15 05:42:57;;;;;;;4.13;3.83;;;16.90;63.10;;;;;;5053805;28;20186;-61
2021/11/15 05:45:23;;;;;;;3.53;3.25;;;16.90;63.10;;;;;;5054374;28;20178;-61
2021/11/15 05:47:49;;;;;;;4.35;3.95;;;16.90;63.10;;;;;;5053956;28;20574;-61
2021/11/15 05:50:14;;;;;;;4.22;3.83;;;16.90;63.20;;;;;;5053685;28;20167;-61
2021/11/15 05:52:42;;;;;;;4.03;3.72;;;16.90;63.10;;;;;;5054204;28;20641;-61
2021/11/15 05:55:09;;;;;;;3.28;3.08;;;16.90;63.10;;;;;;5054228;28;20171;-62
2021/11/15 05:57:34;;;;;;;4.07;3.78;;;16.90;63.10;;;;;;5053035;28;20702;-61
2021/11/15 06:00:00;;;;;;;3.92;3.63;;;16.90;63.00;;;;;;5053911;28;20219;-60
2021/11/15 06:02:25;;;;;;;4.22;3.83;;;16.80;63.00;;;;;;5053866;28;20642;-60
2021/11/15 06:04:51;;;;;;;3.80;3.50;;;16.80;63.00;;;;;;5052988;28;20215;-61
2021/11/15 06:07:19;;;;;;;3.28;3.05;;;16.80;63.00;;;;;;5054046;28;20254;-61
2021/11/15 06:09:48;;;;;;;4.00;3.70;;;16.90;63.10;;;;;;5053208;28;20171;-60
2021/11/15 06:12:13;;;;;;;4.32;3.95;;;16.90;63.10;;;;;;5054207;28;20585;-60
2021/11/15 06:14:39;;;;;;;4.10;3.78;;;16.80;63.10;;;;;;5053378;28;20195;-61
2021/11/15 06:17:04;;;;;;;4.55;4.15;;;16.80;63.10;;;;;;5052862;28;20278;-60
2021/11/15 06:19:30;;;;;;;4.05;3.65;;;16.80;63.10;;;;;;5053605;28;20240;-63
2021/11/15 06:21:55;;;;;;;3.50;3.20;;;16.80;63.00;;;;;;5053909;28;20175;-60
2021/11/15 06:24:21;;;;;;;4.03;3.72;;;16.80;63.10;;;;;;5053107;28;20513;-62
2021/11/15 06:26:47;;;;;;;4.53;4.13;;;16.80;63.10;;;;;;5053039;28;20171;-62
2021/11/15 06:29:12;;;;;;;3.83;3.53;;;16.80;63.10;;;;;;5053476;28;20183;-61
2021/11/15 06:31:38;;;;;;;3.95;3.65;;;16.80;63.10;;;;;;5052406;28;20171;-61
2021/11/15 06:34:03;;;;;;;4.00;3.70;;;16.80;63.10;;;;;;5053539;28;20175;-61
2021/11/15 06:36:29;;;;;;;3.65;3.35;;;16.80;63.10;;;;;;5053107;28;20258;-61
2021/11/15 06:38:57;;;;;;;4.10;3.78;;;16.80;63.20;;;;;;5052624;28;20223;-61
2021/11/15 06:41:22;;;;;;;4.35;3.95;;;16.80;63.10;;;;;;5053295;28;20182;-61
2021/11/15 06:43:48;;;;;;;3.80;3.50;;;16.80;63.50;;;;;;5052852;28;20195;-61
2021/11/15 06:46:16;;;;;;;4.45;4.05;;;16.80;63.20;;;;;;5052379;28;20182;-60
2021/11/15 06:48:42;;;;;;;3.80;3.50;;;16.80;63.10;;;;;;5052942;28;20187;-60
2021/11/15 06:51:09;;;;;;;3.80;3.50;;;16.80;63.10;;;;;;5053328;28;20174;-60
2021/11/15 06:53:35;;;;;;;3.72;3.42;;;16.80;63.20;;;;;;5052140;28;20194;-62
2021/11/15 06:56:01;;;;;;;3.90;3.60;;;16.70;63.00;;;;;;5053040;28;20523;-62
2021/11/15 06:58:27;;;;;;;3.97;3.67;;;16.70;63.10;;;;;;5052870;28;20253;-62
2021/11/15 07:00:53;;;;;;;3.88;3.58;;;16.70;63.10;;;;;;5051924;28;20274;-61
2021/11/15 07:03:18;;;;;;;4.03;3.72;;;16.70;63.10;;;;;;5052897;28;20641;-61
2021/11/15 07:05:44;;;;;;;3.90;3.60;;;16.70;63.10;;;;;;5052654;28;20171;-60
2021/11/15 07:08:09;;;;;;;3.72;3.42;;;16.70;63.20;;;;;;5052008;28;20203;-61
2021/11/15 07:10:36;;;;;;;3.40;3.08;;;16.80;63.20;;;;;;5052550;28;20748;-62
2021/11/15 07:13:02;;;;;;;3.28;3.08;;;16.70;63.10;;;;;;5052547;28;20591;-62
2021/11/15 07:15:28;;;;;;;3.88;3.55;;;16.70;63.10;;;;;;5052347;28;20179;-62
2021/11/15 07:17:53;;;;;;;3.92;3.60;;;16.70;63.20;;;;;;5052767;28;20178;-62
2021/11/15 07:20:19;;;;;;;3.88;3.58;;;16.70;63.20;;;;;;5051982;28;20598;-61
2021/11/15 07:22:47;;;;;;;3.38;3.17;;;16.70;64.00;;;;;;5052327;28;20262;-61
2021/11/15 07:25:13;;;;;;;3.85;3.55;;;16.70;63.20;;;;;;5052764;28;20187;-62
2021/11/15 07:27:39;;;;;;;3.35;3.15;;;16.70;63.20;;;;;;5051363;28;20171;-62
2021/11/15 07:30:05;;;;;;;3.50;3.20;;;16.70;63.20;;;;;;5052514;28;20634;-61
2021/11/15 07:32:31;;;;;;;3.00;2.80;;;16.70;63.10;;;;;;5052296;28;20187;-61
2021/11/15 07:34:56;;;;;;;3.15;2.92;;;16.70;63.10;;;;;;5051747;28;20589;-61
2021/11/15 07:37:22;;;;;;;3.88;3.58;;;16.70;63.20;;;;;;5052447;28;20171;-61
2021/11/15 07:39:47;;;;;;;3.90;3.60;;;16.80;63.30;;;;;;5051440;28;20226;-66
2021/11/15 07:42:14;;;;;;;4.13;3.25;;;16.90;63.10;;;;;;5051527;28;20175;-74
2021/11/15 07:44:40;;;;;;;3.45;3.15;;;17.10;63.10;;;;;;5052424;28;20179;-67
2021/11/15 07:47:05;;;;;;;3.45;3.15;;;17.20;63.10;;;;;;5051947;28;20227;-66
2021/11/15 07:49:31;;;;;;;6.57;3.28;;;17.40;62.90;;;;;;5051402;28;20179;-66
2021/11/15 07:51:57;;;;;;;3.75;3.35;;;17.60;62.70;;;;;;5052402;28;20183;-68
2021/11/15 07:54:22;;;;;;;3.50;2.92;;;17.70;62.40;;;;;;5052315;28;20700;-66
2021/11/15 07:56:48;;;;;;;5.13;3.17;;;17.90;62.20;;;;;;5051146;28;20179;-66
2021/11/15 07:59:13;;;;;;;3.42;2.90;;;18.00;62.00;;;;;;5052046;28;20712;-67
2021/11/15 08:01:39;;;;;;;3.70;3.33;;;18.10;61.90;;;;;;5051949;28;20163;-66
2021/11/15 08:04:04;;;;;;;3.90;3.50;;;18.10;61.80;;;;;;5051477;28;20233;-66
2021/11/15 08:06:30;;;;;;;3.92;2.97;;;18.20;61.90;;;;;;5051766;28;20656;-66
2021/11/15 08:08:55;;;;;;;5.90;3.13;;;18.30;61.80;;;;;;5051845;28;20183;-66
2021/11/15 08:11:24;;;;;;;6.00;3.35;;;18.40;61.60;;;;;;5051230;28;20258;-65
2021/11/15 08:13:49;;;;;;;3.83;3.05;;;18.50;62.20;;;;;;5050197;28;20210;-65
2021/11/15 08:16:15;;;;;;;3.88;3.45;;;18.50;61.10;;;;;;5052031;28;20646;-66
2021/11/15 08:18:41;;;;;;;4.15;3.25;;;18.60;60.90;;;;;;5050910;28;20219;-66
2021/11/15 08:21:12;;;;;;;3.15;2.83;;;18.60;60.90;;;;;;5051999;28;20519;-65
2021/11/15 08:23:37;;;;;;;4.18;3.53;;;18.70;60.80;;;;;;5049791;28;20206;-65
2021/11/15 08:26:51;;;;;;;3.95;3.45;;;18.70;60.80;;;;;;5033775;28;20218;-64
2021/11/15 08:29:17;;;;;;;6.15;3.80;;;18.70;60.70;;;;;;4970777;28;20186;-65
2021/11/15 08:31:44;;;;;;;4.63;3.30;;;18.80;60.70;;;;;;4953869;28;20248;-66
2021/11/15 08:34:09;;;;;;;4.63;3.33;;;18.80;60.70;;;;;;4992597;28;20277;-66
2021/11/15 08:36:35;;;;;;;3.45;2.92;;;18.80;60.60;;;;;;5049961;28;20181;-66
2021/11/15 08:39:05;;;;;;;5.10;3.05;;;18.80;60.50;;;;;;5050714;28;20668;-66
2021/11/15 08:41:33;;;;;;;3.47;3.15;;;18.80;60.40;;;;;;5051609;28;20269;-66
2021/11/15 08:43:59;;;;;;;4.32;3.15;;;18.70;60.70;;;;;;5051720;28;20182;-66
2021/11/15 08:46:26;;;;;;;5.55;3.40;;;18.70;60.90;;;;;;5051077;28;20182;-66
2021/11/15 08:48:52;;;;;;;4.18;3.03;;;18.60;60.90;;;;;;5051271;28;20206;-66
2021/11/15 08:51:18;;;;;;;3.28;2.97;;;18.50;61.40;;;;;;5055737;28;20175;-66
2021/11/15 08:53:43;;;;;;;3.50;3.00;;;18.40;61.60;;;;;;5054341;28;20699;-66
2021/11/15 08:56:09;;;;;;;3.72;3.40;;;18.40;61.70;;;;;;5055572;28;20174;-66
2021/11/15 08:58:35;;;;;;;3.80;3.38;;;18.30;61.90;;;;;;5054470;28;20214;-66
2021/11/15 09:01:01;;;;;;;3.55;3.13;;;18.30;62.10;;;;;;5055390;28;20167;-67
2021/11/15 09:03:26;;;;;;;4.18;3.78;;;18.20;62.40;;;;;;5055307;28;20167;-66
2021/11/15 09:05:52;;;;;;;4.53;3.13;;;18.10;62.50;;;;;;5054530;28;20258;-66
2021/11/15 09:08:18;;;;;;;5.55;3.70;;;18.10;62.70;;;;;;5055474;28;20175;-66
2021/11/15 09:10:44;;;;;;;3.80;3.50;;;18.00;62.60;;;;;;5055131;28;20179;-66
2021/11/15 09:13:12;;;;;;;4.05;3.22;;;18.00;62.50;;;;;;5054530;28;20183;-65
2021/11/15 09:15:41;;;;;;;4.28;3.20;;;18.00;62.50;;;;;;5054989;28;20177;-65
2021/11/15 09:18:07;;;;;;;3.85;3.10;;;18.00;62.50;;;;;;5055039;28;20189;-65
2021/11/15 09:20:32;;;;;;;3.45;3.10;;;18.00;62.70;;;;;;5054369;28;20172;-65
2021/11/15 09:22:58;;;;;;;4.60;3.53;;;17.90;62.60;;;;;;5054975;28;20641;-65
2021/11/15 09:25:23;;;;;;;3.10;2.90;;;17.90;62.70;;;;;;5055122;28;20658;-65
2021/11/15 09:27:49;;;;;;;4.03;3.63;;;17.80;62.70;;;;;;5054099;28;20541;-65
2021/11/15 09:30:14;;;;;;;3.92;3.40;;;17.80;62.90;;;;;;5055116;28;20178;-66
2021/11/15 09:32:40;;;;;;;4.35;3.95;;;17.80;63.10;;;;;;5054516;28;20171;-66
2021/11/15 09:35:07;;;;;;;3.13;2.85;;;17.70;63.10;;;;;;5054300;28;20179;-67
2021/11/15 09:37:33;;;;;;;4.05;3.60;;;17.80;63.10;;;;;;5054600;28;20708;-67
2021/11/15 09:39:58;;;;;;;5.05;3.63;;;17.80;63.00;;;;;;5054604;28;20256;-66
2021/11/15 09:42:24;;;;;;;3.33;3.03;;;17.80;63.00;;;;;;5054027;28;20179;-66
2021/11/15 09:44:49;;;;;;;3.63;3.17;;;17.80;63.00;;;;;;5054567;28;20179;-66
2021/11/15 09:47:15;;;;;;;4.45;3.83;;;17.80;63.00;;;;;;5054317;28;20223;-66
2021/11/15 09:49:41;;;;;;;4.13;3.42;;;17.80;63.00;;;;;;5053856;28;20183;-66
2021/11/15 09:52:08;;;;;;;4.45;3.22;;;17.70;63.10;;;;;;5054780;28;20174;-66
2021/11/15 09:54:34;;;;;;;3.90;3.50;;;17.70;64.00;;;;;;5054268;28;20183;-66
2021/11/15 09:57:00;;;;;;;4.05;3.65;;;17.70;63.10;;;;;;5053858;28;20198;-66
2021/11/15 09:59:28;;;;;;;3.85;3.45;;;17.60;63.20;;;;;;5054387;28;20280;-65
2021/11/15 10:01:54;;;;;;;4.22;3.83;;;17.60;63.20;;;;;;5052926;28;20248;-66
2021/11/15 10:04:19;;;;;;;3.75;3.38;;;17.60;63.30;;;;;;5054683;28;20178;-65
2021/11/15 10:06:50;;;;;;;3.83;3.53;;;17.70;63.30;;;;;;5054407;28;20571;-65
2021/11/15 10:09:24;;;;;;;3.28;2.97;;;17.70;63.20;;;;;;5053869;28;20179;-65
2021/11/15 10:11:53;;;;;;;3.47;3.15;;;17.70;63.20;;;;;;5054133;28;20179;-65
2021/11/15 10:14:19;;;;;;;2.90;2.67;;;17.70;64.10;;;;;;5054270;28;20182;-65
2021/11/15 10:16:52;;;;;;;3.28;2.97;;;17.70;63.30;;;;;;5053063;28;20171;-65
2021/11/15 10:19:20;;;;;;;4.57;3.55;;;17.60;63.30;;;;;;5054086;28;20673;-65
2021/11/15 10:22:02;;;;;;;4.45;3.42;;;17.60;63.40;;;;;;5053834;28;20558;-65
2021/11/15 10:24:34;;;;;;;3.78;3.35;;;17.60;63.30;;;;;;5053409;28;20206;-65
2021/11/15 10:27:05;;;;;;;3.97;3.22;;;17.50;63.20;;;;;;5054012;28;20171;-64
2021/11/15 10:29:36;;;;;;;4.13;3.72;;;17.50;63.20;;;;;;5053636;28;20179;-65
2021/11/15 10:32:06;;;;;;;4.32;3.83;;;17.60;63.40;;;;;;5053264;28;20272;-65
2021/11/15 10:34:39;;;;;;;4.53;3.88;;;17.60;63.20;;;;;;5053743;28;20179;-66
2021/11/15 10:37:15;;;;;;;4.00;3.60;;;17.60;63.10;;;;;;5053139;28;20292;-66
2021/11/15 10:39:43;;;;;;;4.40;3.63;;;17.60;63.10;;;;;;5053440;28;20583;-66
2021/11/15 10:42:20;;;;;;;5.35;3.65;;;17.60;63.20;;;;;;5054037;28;20175;-66
2021/11/15 10:44:47;;;;;;;3.95;3.35;;;17.70;63.10;;;;;;5052989;28;20253;-66
2021/11/15 10:47:13;;;;;;;4.22;3.45;;;17.60;64.00;;;;;;5053633;28;20238;-67
2021/11/15 10:49:39;;;;;;;4.38;3.63;;;17.50;63.20;;;;;;5053417;28;20186;-66
2021/11/15 10:52:08;;;;;;;4.07;3.72;;;17.50;63.20;;;;;;5052567;28;20171;-66
2021/11/15 10:57:22;;;;;;;6.70;3.78;;;17.60;63.30;;;;;;5053590;28;20193;-65
2021/11/15 11:00:10;;;;;;;5.65;3.70;;;17.60;63.40;;;;;;5053337;28;20203;-65
2021/11/15 11:02:48;;;;;;;4.13;3.55;;;17.60;63.20;;;;;;5068537;28;20174;-65
2021/11/15 11:05:19;;;;;;;4.85;3.30;;;17.60;63.20;;;;;;5052309;28;20467;-65
2021/11/15 11:07:47;;;;;;;4.65;3.85;;;17.60;63.20;;;;;;5058683;28;20239;-65
2021/11/15 11:10:17;;;;;;;3.60;3.28;;;17.50;63.30;;;;;;5073148;28;20201;-65
2021/11/15 11:13:00;;;;;;;3.35;3.05;;;17.50;63.20;;;;;;5071465;28;20249;-65
2021/11/15 11:15:35;;;;;;;4.95;3.45;;;17.50;63.30;;;;;;5073200;28;20178;-70
2021/11/15 11:18:04;;;;;;;3.45;3.15;;;17.50;63.20;;;;;;5053093;28;20174;-73
2021/11/15 11:25:48;;;;;;;4.85;3.72;;;17.60;64.00;;;;;;5052557;28;20232;-64
2021/11/15 11:28:44;;;;;;;5.03;3.65;;;17.60;63.10;;;;;;5052107;28;20257;-63
2021/11/15 11:31:11;;;;;;;6.30;4.07;;;17.60;63.00;;;;;;5039621;28;20187;-63
2021/11/15 11:33:36;;;;;;;5.10;3.58;;;17.60;63.30;;;;;;5059071;28;20247;-64
2021/11/15 11:36:04;;;;;;;4.85;3.80;;;17.50;63.30;;;;;;5072677;28;20264;-67
2021/11/15 11:38:30;;;;;;;5.57;3.90;;;17.50;63.10;;;;;;5072197;28;20199;-67
2021/11/15 11:40:56;;;;;;;4.22;3.55;;;17.50;63.20;;;;;;5071541;28;20174;-67
2021/11/15 11:43:22;;;;;;;3.92;3.53;;;17.50;63.30;;;;;;5072474;28;20170;-67
2021/11/15 11:45:54;;;;;;;4.20;3.65;;;17.50;63.30;;;;;;5069233;28;20553;-67
2021/11/15 11:48:20;;;;;;;5.75;4.22;;;17.60;63.30;;;;;;5068296;28;20224;-67
2021/11/15 11:50:48;;;;;;;4.07;3.20;;;17.60;63.20;;;;;;5069028;28;20236;-66
2021/11/15 11:53:20;;;;;;;4.22;3.17;;;18.10;63.40;;;;;;5068963;28;20640;-67
2021/11/15 11:55:46;;;;;;;4.65;3.72;;;17.70;63.10;;;;;;5068136;28;20186;-67
2021/11/15 11:58:32;;;;;;;5.40;3.53;;;17.60;63.10;;;;;;5069031;28;20192;-68
2021/11/15 12:01:14;;;;;;;4.40;3.05;;;17.60;63.10;;;;;;5069077;28;20180;-66
2021/11/15 12:03:39;;;;;;;5.97;2.95;;;17.60;64.00;;;;;;5067994;28;20192;-67
2021/11/15 12:06:27;;;;;;;5.75;3.70;;;17.60;64.20;;;;;;5068875;28;20178;-64
2021/11/15 12:08:56;;;;;;;3.85;3.47;;;17.60;63.40;;;;;;5085194;28;20166;-66
2021/11/15 12:11:26;;;;;;;4.97;3.65;;;17.60;63.60;;;;;;5089193;28;20276;-66
2021/11/15 12:13:52;;;;;;;6.38;3.70;;;17.60;63.40;;;;;;5088802;28;20174;-66
2021/11/15 12:16:17;;;;;;;4.53;3.97;;;17.60;63.30;;;;;;5088332;28;20224;-66
2021/11/15 12:19:00;;;;;;;6.18;3.90;;;17.60;63.30;;;;;;5088596;28;20551;-66
2021/11/15 12:21:33;;;;;;;8.00;4.65;;;17.60;63.50;;;;;;5088936;28;20227;-66
2021/11/15 12:24:05;;;;;;;5.40;4.03;;;17.50;63.30;;;;;;5088300;28;20206;-66
2021/11/15 12:26:39;;;;;;;5.30;3.72;;;17.50;63.40;;;;;;5088550;28;20659;-66
2021/11/15 12:29:26;;;;;;;5.03;4.20;;;17.50;63.40;;;;;;5089113;28;20249;-66
2021/11/15 12:31:54;;;;;;;6.50;4.05;;;17.50;63.40;;;;;;5087696;28;20197;-67
2021/11/15 12:34:21;;;;;;;4.82;3.70;;;17.50;63.40;;;;;;5088840;28;20171;-67
2021/11/15 12:36:49;;;;;;;4.68;3.78;;;17.50;63.30;;;;;;5087531;28;20541;-68
2021/11/15 12:39:25;;;;;;;6.88;4.50;;;17.50;64.00;;;;;;5088561;28;20201;-67
2021/11/15 12:41:52;;;;;;;5.30;3.95;;;17.50;63.10;;;;;;5088246;28;20186;-67
2021/11/15 12:44:29;;;;;;;6.47;4.20;;;17.50;63.10;;;;;;5087366;28;20257;-66
2021/11/15 12:47:18;;;;;;;6.00;4.13;;;17.50;63.10;;;;;;5088501;28;20170;-66
2021/11/15 12:49:49;;;;;;;5.65;4.15;;;17.50;63.10;;;;;;5087938;28;20181;-67
2021/11/15 12:52:18;;;;;;;6.18;4.63;;;17.50;63.20;;;;;;5087449;28;20170;-67
2021/11/15 12:54:48;;;;;;;4.38;3.88;;;17.40;63.00;;;;;;5088025;28;20174;-68
2021/11/15 12:57:16;;;;;;;5.07;4.10;;;17.40;63.00;;;;;;5075136;28;20175;-67